sensor_id;sensor_type;location;lat;lon;timestamp;P1;durP1;ratioP1;P2;durP2;ratioP2
77148;SDS011;66122;47.130;16.844;2023-05-21T00:03:24;16.87;;;9.93;;
77148;SDS011;66122;47.130;16.844;2023-05-21T00:13:30;18.70;;;10.23;;
77148;SDS011;66122;47.130;16.844;2023-05-21T00:23:32;15.80;;;9.47;;
77148;SDS011;66122;47.130;16.844;2023-05-21T00:33:35;17.30;;;10.07;;
77148;SDS011;66122;47.130;16.844;2023-05-21T00:43:37;17.02;;;10.07;;
77148;SDS011;66122;47.130;16.844;2023-05-21T00:53:43;14.73;;;9.30;;
77148;SDS011;66122;47.130;16.844;2023-05-21T01:03:47;16.40;;;9.33;;
77148;SDS011;66122;47.130;16.844;2023-05-21T01:13:50;17.83;;;9.70;;
77148;SDS011;66122;47.130;16.844;2023-05-21T01:23:54;17.33;;;9.82;;
77148;SDS011;66122;47.130;16.844;2023-05-21T01:33:57;15.43;;;9.93;;
77148;SDS011;66122;47.130;16.844;2023-05-21T01:44:06;15.87;;;10.07;;
77148;SDS011;66122;47.130;16.844;2023-05-21T01:54:10;17.52;;;10.88;;
77148;SDS011;66122;47.130;16.844;2023-05-21T02:04:13;19.57;;;10.13;;
77148;SDS011;66122;47.130;16.844;2023-05-21T02:14:16;15.00;;;9.77;;
77148;SDS011;66122;47.130;16.844;2023-05-21T02:24:18;18.10;;;10.35;;
77148;SDS011;66122;47.130;16.844;2023-05-21T02:34:21;19.90;;;10.13;;
77148;SDS011;66122;47.130;16.844;2023-05-21T02:44:23;17.97;;;9.47;;
77148;SDS011;66122;47.130;16.844;2023-05-21T02:54:27;17.90;;;10.03;;
77148;SDS011;66122;47.130;16.844;2023-05-21T03:04:30;17.02;;;10.40;;
77148;SDS011;66122;47.130;16.844;2023-05-21T03:14:34;17.57;;;11.17;;
77148;SDS011;66122;47.130;16.844;2023-05-21T03:24:37;19.63;;;11.73;;
77148;SDS011;66122;47.130;16.844;2023-05-21T03:34:40;23.60;;;11.27;;
77148;SDS011;66122;47.130;16.844;2023-05-21T03:44:44;21.83;;;10.57;;
77148;SDS011;66122;47.130;16.844;2023-05-21T03:55:07;19.80;;;11.23;;
77148;SDS011;66122;47.130;16.844;2023-05-21T04:05:13;18.65;;;11.07;;
77148;SDS011;66122;47.130;16.844;2023-05-21T04:15:16;18.97;;;11.33;;
77148;SDS011;66122;47.130;16.844;2023-05-21T04:25:22;23.60;;;13.20;;
77148;SDS011;66122;47.130;16.844;2023-05-21T04:35:25;20.73;;;11.37;;
77148;SDS011;66122;47.130;16.844;2023-05-21T04:45:28;19.00;;;10.75;;
77148;SDS011;66122;47.130;16.844;2023-05-21T04:55:32;19.10;;;12.13;;
77148;SDS011;66122;47.130;16.844;2023-05-21T05:05:40;19.87;;;11.67;;
77148;SDS011;66122;47.130;16.844;2023-05-21T05:15:43;19.80;;;11.60;;
77148;SDS011;66122;47.130;16.844;2023-05-21T05:25:48;19.30;;;11.33;;
77148;SDS011;66122;47.130;16.844;2023-05-21T05:35:51;21.37;;;12.27;;
77148;SDS011;66122;47.130;16.844;2023-05-21T05:45:55;16.50;;;11.27;;
77148;SDS011;66122;47.130;16.844;2023-05-21T05:55:58;20.90;;;13.17;;
77148;SDS011;66122;47.130;16.844;2023-05-21T06:06:02;15.57;;;10.67;;
77148;SDS011;66122;47.130;16.844;2023-05-21T06:16:06;17.50;;;10.97;;
77148;SDS011;66122;47.130;16.844;2023-05-21T06:26:12;17.17;;;11.27;;
77148;SDS011;66122;47.130;16.844;2023-05-21T06:36:15;15.57;;;10.30;;
77148;SDS011;66122;47.130;16.844;2023-05-21T06:46:19;16.00;;;10.00;;
77148;SDS011;66122;47.130;16.844;2023-05-21T06:56:22;13.40;;;9.60;;
77148;SDS011;66122;47.130;16.844;2023-05-21T07:06:28;14.60;;;10.17;;
77148;SDS011;66122;47.130;16.844;2023-05-21T07:16:32;13.57;;;9.93;;
77148;SDS011;66122;47.130;16.844;2023-05-21T07:26:34;14.25;;;9.73;;
77148;SDS011;66122;47.130;16.844;2023-05-21T07:36:38;15.07;;;10.27;;
77148;SDS011;66122;47.130;16.844;2023-05-21T07:46:41;12.63;;;9.47;;
77148;SDS011;66122;47.130;16.844;2023-05-21T07:56:45;17.63;;;10.00;;
77148;SDS011;66122;47.130;16.844;2023-05-21T08:07:03;16.57;;;9.10;;
77148;SDS011;66122;47.130;16.844;2023-05-21T08:17:10;13.47;;;9.53;;
77148;SDS011;66122;47.130;16.844;2023-05-21T08:27:12;11.18;;;8.88;;
77148;SDS011;66122;47.130;16.844;2023-05-21T08:37:17;13.73;;;9.27;;
77148;SDS011;66122;47.130;16.844;2023-05-21T08:47:41;13.30;;;8.47;;
77148;SDS011;66122;47.130;16.844;2023-05-21T08:57:51;12.00;;;9.88;;
77148;SDS011;66122;47.130;16.844;2023-05-21T09:08:03;14.43;;;8.43;;
77148;SDS011;66122;47.130;16.844;2023-05-21T09:18:19;10.20;;;8.10;;
77148;SDS011;66122;47.130;16.844;2023-05-21T09:28:26;10.60;;;7.90;;
77148;SDS011;66122;47.130;16.844;2023-05-21T09:38:32;9.67;;;7.70;;
77148;SDS011;66122;47.130;16.844;2023-05-21T09:48:39;9.70;;;7.50;;
77148;SDS011;66122;47.130;16.844;2023-05-21T09:58:47;10.27;;;7.25;;
77148;SDS011;66122;47.130;16.844;2023-05-21T10:09:11;8.47;;;6.53;;
77148;SDS011;66122;47.130;16.844;2023-05-21T10:19:16;14.33;;;8.10;;
77148;SDS011;66122;47.130;16.844;2023-05-21T10:29:21;10.27;;;8.00;;
77148;SDS011;66122;47.130;16.844;2023-05-21T10:39:24;10.60;;;8.23;;
77148;SDS011;66122;47.130;16.844;2023-05-21T11:00:11;9.00;;;7.72;;
77148;SDS011;66122;47.130;16.844;2023-05-21T11:10:29;11.93;;;8.57;;
77148;SDS011;66122;47.130;16.844;2023-05-21T11:20:49;9.63;;;7.83;;
77148;SDS011;66122;47.130;16.844;2023-05-21T11:41:25;12.70;;;8.07;;
77148;SDS011;66122;47.130;16.844;2023-05-21T11:51:27;9.30;;;8.30;;
77148;SDS011;66122;47.130;16.844;2023-05-21T12:01:30;9.17;;;8.23;;
77148;SDS011;66122;47.130;16.844;2023-05-21T12:11:33;12.67;;;7.60;;
77148;SDS011;66122;47.130;16.844;2023-05-21T12:21:35;9.10;;;8.13;;
77148;SDS011;66122;47.130;16.844;2023-05-21T12:31:48;11.57;;;8.47;;
77148;SDS011;66122;47.130;16.844;2023-05-21T12:41:54;12.23;;;8.03;;
77148;SDS011;66122;47.130;16.844;2023-05-21T12:51:57;11.97;;;8.23;;
77148;SDS011;66122;47.130;16.844;2023-05-21T13:02:00;11.13;;;7.50;;
77148;SDS011;66122;47.130;16.844;2023-05-21T13:12:02;10.88;;;6.82;;
77148;SDS011;66122;47.130;16.844;2023-05-21T13:22:05;8.10;;;6.97;;
77148;SDS011;66122;47.130;16.844;2023-05-21T13:32:08;9.97;;;7.17;;
77148;SDS011;66122;47.130;16.844;2023-05-21T13:42:11;10.60;;;7.15;;
77148;SDS011;66122;47.130;16.844;2023-05-21T13:52:13;9.70;;;6.90;;
77148;SDS011;66122;47.130;16.844;2023-05-21T14:02:16;10.20;;;6.63;;
77148;SDS011;66122;47.130;16.844;2023-05-21T14:12:19;10.57;;;7.37;;
77148;SDS011;66122;47.130;16.844;2023-05-21T14:22:24;9.53;;;6.50;;
77148;SDS011;66122;47.130;16.844;2023-05-21T14:32:27;8.55;;;7.25;;
77148;SDS011;66122;47.130;16.844;2023-05-21T14:42:29;8.00;;;7.13;;
77148;SDS011;66122;47.130;16.844;2023-05-21T14:52:33;8.77;;;6.63;;
77148;SDS011;66122;47.130;16.844;2023-05-21T15:02:35;7.28;;;6.53;;
77148;SDS011;66122;47.130;16.844;2023-05-21T15:12:39;9.23;;;6.77;;
77148;SDS011;66122;47.130;16.844;2023-05-21T15:22:42;9.97;;;6.97;;
77148;SDS011;66122;47.130;16.844;2023-05-21T15:32:44;10.38;;;6.28;;
77148;SDS011;66122;47.130;16.844;2023-05-21T15:42:47;8.23;;;6.40;;
77148;SDS011;66122;47.130;16.844;2023-05-21T15:52:49;7.23;;;6.33;;
77148;SDS011;66122;47.130;16.844;2023-05-21T16:02:54;8.17;;;6.73;;
77148;SDS011;66122;47.130;16.844;2023-05-21T16:12:57;8.63;;;7.03;;
77148;SDS011;66122;47.130;16.844;2023-05-21T16:23:00;9.10;;;6.45;;
77148;SDS011;66122;47.130;16.844;2023-05-21T16:33:04;7.73;;;5.83;;
77148;SDS011;66122;47.130;16.844;2023-05-21T16:43:09;8.03;;;6.33;;
77148;SDS011;66122;47.130;16.844;2023-05-21T16:53:12;7.68;;;6.32;;
77148;SDS011;66122;47.130;16.844;2023-05-21T17:03:15;8.23;;;7.20;;
77148;SDS011;66122;47.130;16.844;2023-05-21T17:13:18;8.23;;;6.33;;
77148;SDS011;66122;47.130;16.844;2023-05-21T17:23:24;9.73;;;6.67;;
77148;SDS011;66122;47.130;16.844;2023-05-21T17:33:27;8.97;;;6.40;;
77148;SDS011;66122;47.130;16.844;2023-05-21T17:43:29;8.90;;;6.20;;
77148;SDS011;66122;47.130;16.844;2023-05-21T17:53:33;7.73;;;6.90;;
77148;SDS011;66122;47.130;16.844;2023-05-21T18:03:35;7.30;;;5.83;;
77148;SDS011;66122;47.130;16.844;2023-05-21T18:13:38;12.67;;;5.93;;
77148;SDS011;66122;47.130;16.844;2023-05-21T18:23:41;7.72;;;5.65;;
77148;SDS011;66122;47.130;16.844;2023-05-21T18:33:43;10.10;;;6.50;;
77148;SDS011;66122;47.130;16.844;2023-05-21T18:43:46;8.83;;;6.60;;
77148;SDS011;66122;47.130;16.844;2023-05-21T18:53:49;11.93;;;7.32;;
77148;SDS011;66122;47.130;16.844;2023-05-21T19:03:51;9.47;;;7.13;;
77148;SDS011;66122;47.130;16.844;2023-05-21T19:13:54;10.97;;;8.13;;
77148;SDS011;66122;47.130;16.844;2023-05-21T19:23:56;10.07;;;7.78;;
77148;SDS011;66122;47.130;16.844;2023-05-21T19:33:59;13.40;;;9.17;;
77148;SDS011;66122;47.130;16.844;2023-05-21T19:44:02;9.37;;;6.93;;
77148;SDS011;66122;47.130;16.844;2023-05-21T19:54:05;11.00;;;7.47;;
77148;SDS011;66122;47.130;16.844;2023-05-21T20:04:08;13.90;;;8.82;;
77148;SDS011;66122;47.130;16.844;2023-05-21T20:14:13;13.10;;;9.07;;
77148;SDS011;66122;47.130;16.844;2023-05-21T20:24:16;13.93;;;8.07;;
77148;SDS011;66122;47.130;16.844;2023-05-21T20:34:18;12.55;;;7.80;;
77148;SDS011;66122;47.130;16.844;2023-05-21T20:44:22;14.33;;;7.63;;
77148;SDS011;66122;47.130;16.844;2023-05-21T20:54:28;14.93;;;8.63;;
77148;SDS011;66122;47.130;16.844;2023-05-21T21:04:33;11.38;;;7.28;;
77148;SDS011;66122;47.130;16.844;2023-05-21T21:14:36;14.37;;;7.80;;
77148;SDS011;66122;47.130;16.844;2023-05-21T21:24:38;10.23;;;7.07;;
77148;SDS011;66122;47.130;16.844;2023-05-21T21:34:41;14.73;;;8.33;;
77148;SDS011;66122;47.130;16.844;2023-05-21T21:44:45;13.70;;;7.90;;
77148;SDS011;66122;47.130;16.844;2023-05-21T21:54:48;14.70;;;8.60;;
77148;SDS011;66122;47.130;16.844;2023-05-21T22:04:51;10.73;;;6.83;;
77148;SDS011;66122;47.130;16.844;2023-05-21T22:14:53;10.80;;;7.95;;
77148;SDS011;66122;47.130;16.844;2023-05-21T22:24:56;12.20;;;7.80;;
77148;SDS011;66122;47.130;16.844;2023-05-21T22:34:59;13.53;;;7.90;;
77148;SDS011;66122;47.130;16.844;2023-05-21T22:45:03;13.77;;;8.02;;
77148;SDS011;66122;47.130;16.844;2023-05-21T22:55:06;11.97;;;8.10;;
77148;SDS011;66122;47.130;16.844;2023-05-21T23:05:12;11.77;;;8.37;;
77148;SDS011;66122;47.130;16.844;2023-05-21T23:15:15;10.67;;;7.73;;
77148;SDS011;66122;47.130;16.844;2023-05-21T23:25:17;13.65;;;8.25;;
77148;SDS011;66122;47.130;16.844;2023-05-21T23:35:20;12.30;;;8.30;;
77148;SDS011;66122;47.130;16.844;2023-05-21T23:45:22;13.20;;;7.83;;
77148;SDS011;66122;47.130;16.844;2023-05-21T23:55:25;12.27;;;8.75;;
